Time;durP1;ratioP1;P1;durP2;ratioP2;P2;SDS_P1;SDS_P2;PMS_P1;PMS_P2;Temp;Humidity;BMP_temperature;BMP_pressure;BME280_temperature;BME280_humidity;BME280_pressure;Samples;Min_cycle;Max_cycle;Signal;HPM_P1;HPM_P2
2022/09/05 00:00:30;;;;;;;;;2.00;1.00;;;;;23.42;41.06;102079.17;110388;1261;15266;-46
2022/09/05 00:03:16;;;;;;;;;1.00;1.00;;;;;23.43;40.99;102079.42;110480;1262;15045;-46
2022/09/05 00:06:01;;;;;;;;;1.00;1.00;;;;;23.42;41.07;102077.88;110456;1262;14591;-48
2022/09/05 00:08:46;;;;;;;;;1.00;1.00;;;;;23.41;41.08;102074.52;110460;1262;13750;-43
2022/09/05 00:11:31;;;;;;;;;1.00;1.00;;;;;23.42;40.98;102075.52;110555;1261;15320;-43
2022/09/05 00:14:16;;;;;;;;;1.00;1.00;;;;;23.41;41.05;102075.98;110475;1261;14331;-45
2022/09/05 00:17:01;;;;;;;;;1.00;1.00;;;;;23.42;40.97;102077.33;110457;1262;14088;-43
2022/09/05 00:19:46;;;;;;;;;2.00;1.00;;;;;23.41;41.01;102075.77;110469;1262;14235;-43
2022/09/05 00:22:31;;;;;;;;;1.00;1.00;;;;;23.41;41.11;102073.23;110447;1262;14389;-45
2022/09/05 00:25:16;;;;;;;;;1.00;1.00;;;;;23.42;41.05;102077.33;110575;1261;15057;-44
2022/09/05 00:28:02;;;;;;;;;2.00;2.00;;;;;23.42;41.03;102073.33;110566;1261;14684;-47
2022/09/05 00:30:46;;;;;;;;;1.00;1.00;;;;;23.40;41.08;102071.64;110515;1261;12698;-45
2022/09/05 00:33:32;;;;;;;;;1.00;1.00;;;;;23.41;41.07;102075.05;110514;1261;14961;-45
2022/09/05 00:36:17;;;;;;;;;2.00;1.00;;;;;23.42;40.98;102074.05;110458;1262;15926;-45
2022/09/05 00:39:02;;;;;;;;;2.00;2.00;;;;;23.42;40.96;102077.34;110481;1260;13854;-46
2022/09/05 00:41:48;;;;;;;;;1.00;1.00;;;;;23.41;40.91;102076.66;110512;1261;15123;-45
2022/09/05 00:44:33;;;;;;;;;2.00;1.00;;;;;23.40;40.96;102077.89;110475;1262;15387;-45
2022/09/05 00:47:18;;;;;;;;;1.00;1.00;;;;;23.39;41.00;102075.50;110436;1262;14524;-45
2022/09/05 00:50:03;;;;;;;;;1.00;1.00;;;;;23.40;41.00;102073.65;110491;1262;15252;-43
2022/09/05 00:52:48;;;;;;;;;2.00;1.00;;;;;23.41;40.94;102071.27;110390;1262;14958;-45
2022/09/05 00:55:33;;;;;;;;;2.00;1.00;;;;;23.41;40.93;102072.29;110466;1262;15315;-46
2022/09/05 00:58:18;;;;;;;;;1.00;1.00;;;;;23.41;41.01;102074.88;110596;1261;14926;-46
2022/09/05 01:01:03;;;;;;;;;1.00;1.00;;;;;23.40;40.97;102078.98;110523;1262;12684;-47
2022/09/05 01:03:48;;;;;;;;;1.00;1.00;;;;;23.39;41.04;102075.98;110504;1262;14990;-46
2022/09/05 01:06:33;;;;;;;;;1.00;1.00;;;;;23.40;40.98;102077.20;110460;1262;14545;-46
2022/09/05 01:09:18;;;;;;;;;1.00;1.00;;;;;23.40;40.98;102075.13;110400;1262;14472;-46
2022/09/05 01:12:03;;;;;;;;;2.00;1.00;;;;;23.40;40.99;102071.49;110475;1262;15396;-44
2022/09/05 01:14:48;;;;;;;;;2.00;2.00;;;;;23.41;40.91;102070.68;110473;1262;14054;-48
2022/09/05 01:17:33;;;;;;;;;1.00;1.00;;;;;23.41;40.89;102069.38;110456;1261;14601;-45
2022/09/05 01:20:18;;;;;;;;;1.67;1.67;;;;;23.41;40.83;102072.27;110412;1262;15084;-45
2022/09/05 01:23:04;;;;;;;;;1.00;1.00;;;;;23.41;40.91;102076.30;110451;1262;14928;-46
2022/09/05 01:25:49;;;;;;;;;2.00;2.00;;;;;23.40;40.94;102076.42;110458;1262;13082;-47
2022/09/05 01:28:34;;;;;;;;;2.00;2.00;;;;;23.40;41.07;102076.05;110621;1262;14942;-46
2022/09/05 01:31:19;;;;;;;;;2.00;2.00;;;;;23.40;40.94;102084.43;110604;1262;14907;-47
2022/09/05 01:34:04;;;;;;;;;1.50;1.50;;;;;23.40;40.98;102085.02;110553;1262;12637;-46
2022/09/05 01:36:49;;;;;;;;;1.00;1.00;;;;;23.40;40.94;102085.86;110511;1262;13201;-46
2022/09/05 01:39:34;;;;;;;;;1.33;1.33;;;;;23.38;40.96;102083.23;110493;1262;17065;-46
2022/09/05 01:42:21;;;;;;;;;2.00;2.00;;;;;23.38;40.94;102083.44;110510;1261;14272;-46
2022/09/05 01:45:06;;;;;;;;;2.00;2.00;;;;;23.40;40.88;102087.61;110482;1262;15130;-48
2022/09/05 01:47:52;;;;;;;;;2.00;2.00;;;;;23.40;40.95;102085.25;110472;1261;13143;-46
2022/09/05 01:50:37;;;;;;;;;1.67;1.67;;;;;23.39;40.97;102087.71;110473;1262;15310;-46
2022/09/05 01:53:24;;;;;;;;;1.00;1.00;;;;;23.38;40.97;102089.39;110495;1262;14146;-46
2022/09/05 01:56:09;;;;;;;;;2.00;2.00;;;;;23.38;40.89;102095.10;110502;1261;14848;-46
2022/09/05 01:58:54;;;;;;;;;1.33;1.33;;;;;23.41;40.93;102091.67;110470;1261;15199;-45
2022/09/05 02:01:39;;;;;;;;;1.00;1.00;;;;;23.40;40.82;102094.00;110495;1262;18030;-45
2022/09/05 02:04:24;;;;;;;;;1.00;1.00;;;;;23.39;40.89;102090.92;110432;1262;13983;-46
2022/09/05 02:07:09;;;;;;;;;2.00;2.00;;;;;23.40;40.89;102093.97;110625;1262;13083;-47
2022/09/05 02:09:54;;;;;;;;;1.00;1.00;;;;;23.38;40.94;102094.86;110590;1261;12549;-46
2022/09/05 02:12:39;;;;;;;;;1.00;1.00;;;;;23.39;41.03;102093.73;110487;1262;13080;-46
2022/09/05 02:15:24;;;;;;;;;1.00;1.00;;;;;23.40;40.89;102096.13;110487;1262;14866;-46
2022/09/05 02:18:10;;;;;;;;;2.00;2.00;;;;;23.38;40.95;102095.44;110480;1262;13839;-46
2022/09/05 02:20:55;;;;;;;;;1.00;1.00;;;;;23.37;40.88;102103.57;110368;1262;14038;-47
2022/09/05 02:23:40;;;;;;;;;1.00;1.00;;;;;23.36;40.98;102104.23;110444;1262;14875;-45
2022/09/05 02:26:25;;;;;;;;;1.00;1.00;;;;;23.35;40.92;102102.15;110452;1262;14730;-46
2022/09/05 02:29:10;;;;;;;;;2.00;2.00;;;;;23.36;40.97;102100.58;110486;1262;14866;-48
2022/09/05 02:31:55;;;;;;;;;2.67;2.00;;;;;23.37;40.88;102105.59;110475;1262;14809;-47
2022/09/05 02:34:41;;;;;;;;;1.00;1.00;;;;;23.37;40.88;102107.80;110450;1261;14732;-45
2022/09/05 02:37:25;;;;;;;;;2.00;2.00;;;;;23.37;40.87;102108.70;110591;1262;14309;-45
2022/09/05 02:40:10;;;;;;;;;1.00;1.00;;;;;23.37;40.87;102107.48;110633;1262;12649;-46
2022/09/05 02:42:55;;;;;;;;;1.00;1.00;;;;;23.35;40.81;102105.73;110510;1261;13183;-46
2022/09/05 02:45:40;;;;;;;;;1.00;1.00;;;;;23.36;40.92;102110.08;110549;1261;13254;-47
2022/09/05 02:48:25;;;;;;;;;1.00;1.00;;;;;23.36;40.83;102105.52;110458;1262;14321;-47
2022/09/05 02:51:10;;;;;;;;;2.00;2.00;;;;;23.36;40.72;102104.90;110375;1262;14838;-47
2022/09/05 02:53:55;;;;;;;;;2.00;2.00;;;;;23.35;40.78;102106.70;110539;1261;14773;-47
2022/09/05 02:56:40;;;;;;;;;1.00;1.00;;;;;23.36;40.80;102109.17;110437;1261;14550;-46
2022/09/05 02:59:25;;;;;;;;;1.33;1.33;;;;;23.37;40.73;102110.17;110512;1262;14237;-46
2022/09/05 03:02:10;;;;;;;;;1.00;1.00;;;;;23.36;40.74;102110.75;110482;1261;15032;-46
2022/09/05 03:04:56;;;;;;;;;1.00;1.00;;;;;23.35;40.80;102110.54;110465;1262;14806;-45
2022/09/05 03:07:41;;;;;;;;;1.00;1.00;;;;;23.34;40.76;102109.35;110470;1261;14963;-45
2022/09/05 03:10:26;;;;;;;;;1.00;1.00;;;;;23.36;40.73;102112.11;110605;1262;14979;-45
2022/09/05 03:13:11;;;;;;;;;2.00;2.00;;;;;23.35;40.81;102108.71;110626;1262;12836;-45
2022/09/05 03:15:56;;;;;;;;;1.00;1.00;;;;;23.36;40.77;102112.77;110601;1262;15160;-46
2022/09/05 03:18:41;;;;;;;;;1.00;1.00;;;;;23.35;40.70;102109.44;110464;1262;13537;-45
2022/09/05 03:21:28;;;;;;;;;1.00;1.00;;;;;23.36;40.75;102113.23;110342;1262;14666;-46
2022/09/05 03:24:13;;;;;;;;;1.00;1.00;;;;;23.34;40.77;102113.88;110551;1261;13795;-47
2022/09/05 03:26:58;;;;;;;;;2.00;2.00;;;;;23.36;40.72;102114.30;110537;1262;14948;-47
2022/09/05 03:29:43;;;;;;;;;2.00;1.00;;;;;23.35;40.68;102118.34;110498;1262;14854;-46
2022/09/05 03:32:28;;;;;;;;;1.00;1.00;;;;;23.35;40.74;102123.45;110480;1262;14761;-45
2022/09/05 03:35:13;;;;;;;;;1.00;1.00;;;;;23.35;40.66;102120.20;110471;1262;15072;-45
2022/09/05 03:37:58;;;;;;;;;1.00;1.00;;;;;23.34;40.70;102121.73;110479;1262;14656;-46
2022/09/05 03:40:44;;;;;;;;;2.00;2.00;;;;;23.35;40.66;102121.63;110476;1262;15411;-46
2022/09/05 03:43:29;;;;;;;;;1.00;1.00;;;;;23.34;40.63;102125.60;110476;1262;14255;-46
2022/09/05 03:46:15;;;;;;;;;2.00;2.00;;;;;23.34;40.66;102123.28;110627;1261;13394;-45
2022/09/05 03:49:00;;;;;;;;;2.00;2.00;;;;;23.33;40.64;102126.39;110491;1262;12805;-46
2022/09/05 03:51:45;;;;;;;;;2.00;2.00;;;;;23.34;40.70;102129.06;110520;1261;13306;-45
2022/09/05 03:54:30;;;;;;;;;1.00;1.00;;;;;23.34;40.62;102130.90;110483;1262;15126;-46
2022/09/05 03:57:15;;;;;;;;;2.00;2.00;;;;;23.33;40.72;102131.55;110361;1262;14841;-45
2022/09/05 04:00:03;;;;;;;;;1.67;1.67;;;;;23.34;40.60;102133.81;110474;1262;14668;-46
2022/09/05 04:02:48;;;;;;;;;2.00;2.00;;;;;23.33;40.62;102134.67;110519;1262;14505;-45
2022/09/05 04:05:33;;;;;;;;;2.00;2.00;;;;;23.33;40.62;102134.66;110565;1261;14736;-46
2022/09/05 04:08:18;;;;;;;;;1.67;1.67;;;;;23.34;40.64;102136.14;110487;1262;14805;-47
2022/09/05 04:11:02;;;;;;;;;1.67;1.67;;;;;23.34;40.56;102135.79;110470;1261;14787;-45
2022/09/05 04:13:48;;;;;;;;;1.00;1.00;;;;;23.33;40.63;102133.36;110513;1262;14495;-45
2022/09/05 04:16:33;;;;;;;;;1.00;1.00;;;;;23.31;40.60;102133.77;110470;1262;14314;-46
2022/09/05 04:19:18;;;;;;;;;1.00;1.00;;;;;23.32;40.58;102139.86;110501;1261;14674;-51
2022/09/05 04:22:03;;;;;;;;;1.67;1.67;;;;;23.33;40.60;102146.16;110575;1261;12758;-46
2022/09/05 04:24:48;;;;;;;;;1.00;1.00;;;;;23.33;40.63;102144.11;110454;1262;12863;-45
2022/09/05 04:27:33;;;;;;;;;1.00;1.00;;;;;23.34;40.66;102145.84;110225;1262;14157;-45
2022/09/05 04:30:18;;;;;;;;;2.00;2.00;;;;;23.32;40.61;102147.15;110406;1262;14371;-46
2022/09/05 04:33:03;;;;;;;;;1.00;1.00;;;;;23.34;40.74;102147.90;110496;1262;14425;-45
2022/09/05 04:35:48;;;;;;;;;1.33;1.33;;;;;23.35;40.73;102150.16;110498;1262;14766;-46
2022/09/05 04:38:34;;;;;;;;;2.00;2.00;;;;;23.34;40.76;102151.33;110494;1261;14632;-46
2022/09/05 04:41:19;;;;;;;;;1.00;1.00;;;;;23.34;40.80;102154.57;110464;1262;13787;-46
2022/09/05 04:44:03;;;;;;;;;1.00;1.00;;;;;23.34;40.85;102155.73;110479;1262;15399;-47
2022/09/05 04:46:48;;;;;;;;;1.00;1.00;;;;;23.34;40.83;102158.44;110442;1261;14756;-44
2022/09/05 04:49:33;;;;;;;;;1.67;1.67;;;;;23.35;40.81;102163.27;110447;1262;14210;-46
2022/09/05 04:52:18;;;;;;;;;1.33;1.33;;;;;23.33;40.85;102165.62;110610;1261;14785;-47
2022/09/05 04:55:03;;;;;;;;;1.00;1.00;;;;;23.36;40.88;102168.08;110468;1262;12892;-46
2022/09/05 04:57:49;;;;;;;;;1.00;1.00;;;;;23.38;40.77;102172.81;110619;1261;12255;-47
2022/09/05 05:00:34;;;;;;;;;2.00;2.00;;;;;23.41;40.91;102172.81;110498;1261;14636;-47
2022/09/05 05:03:19;;;;;;;;;6.00;5.00;;;;;23.27;40.68;102171.92;110457;1262;14545;-46
2022/09/05 05:06:04;;;;;;;;;6.00;5.00;;;;;23.07;40.40;102172.70;110440;1262;14788;-46
2022/09/05 05:08:49;;;;;;;;;6.00;6.00;;;;;22.88;40.20;102176.46;110462;1261;14078;-46
2022/09/05 05:11:34;;;;;;;;;6.67;6.00;;;;;22.78;39.50;102175.91;110476;1261;15115;-45
2022/09/05 05:14:19;;;;;;;;;6.00;5.67;;;;;22.75;39.23;102186.19;110508;1262;14945;-45
2022/09/05 05:17:04;;;;;;;;;5.00;5.00;;;;;22.68;38.84;102188.52;109585;1262;1204805;-46
2022/09/05 05:19:49;;;;;;;;;10.33;9.00;;;;;22.60;38.57;102187.55;110437;1262;14266;-45
2022/09/05 05:22:34;;;;;;;;;11.00;10.00;;;;;22.56;38.46;102184.58;110547;1261;14247;-46
2022/09/05 05:25:19;;;;;;;;;9.33;9.33;;;;;22.56;38.17;102185.59;110443;1262;19366;-44
2022/09/05 05:28:04;;;;;;;;;10.00;8.00;;;;;22.52;38.09;102191.59;110569;1262;13194;-46
2022/09/05 05:30:49;;;;;;;;;10.00;7.67;;;;;22.50;38.04;102193.79;110595;1261;13226;-46
2022/09/05 05:33:34;;;;;;;;;8.33;7.00;;;;;22.48;37.87;102200.91;110522;1262;15100;-48
2022/09/05 05:36:20;;;;;;;;;6.67;6.67;;;;;22.49;37.84;102197.70;110326;1262;13996;-47
2022/09/05 05:39:05;;;;;;;;;7.00;7.00;;;;;22.61;37.76;102197.57;111940;1262;18087;-46
2022/09/05 05:41:50;;;;;;;;;6.00;6.00;;;;;22.86;37.68;102195.14;110513;1262;15113;-47
2022/09/05 05:44:34;;;;;;;;;5.33;5.33;;;;;23.02;37.60;102199.48;110322;1261;15509;-45
2022/09/05 05:47:19;;;;;;;;;7.00;5.00;;;;;23.14;37.83;102198.23;110448;1261;14516;-45
2022/09/05 05:50:06;;;;;;;;;6.00;6.00;;;;;23.22;37.85;102204.14;110468;1261;14943;-48
2022/09/05 05:52:51;;;;;;;;;5.00;5.00;;;;;23.28;38.05;102203.43;110459;1261;14555;-46
2022/09/05 05:55:36;;;;;;;;;3.00;3.00;;;;;23.32;38.13;102202.02;110439;1262;14005;-47
2022/09/05 05:58:21;;;;;;;;;4.33;3.00;;;;;23.34;38.16;102205.30;110577;1262;13491;-50
2022/09/05 06:01:06;;;;;;;;;5.00;5.00;;;;;23.34;38.20;102202.90;110463;1262;12898;-47
2022/09/05 06:03:51;;;;;;;;;5.00;5.00;;;;;23.36;38.17;102202.71;110443;1261;10505;-45
2022/09/05 06:06:36;;;;;;;;;3.00;3.00;;;;;23.40;38.12;102205.20;110377;1262;13865;-45
2022/09/05 06:09:21;;;;;;;;;6.00;5.00;;;;;23.42;38.05;102199.71;110417;1261;14128;-44
2022/09/05 06:12:06;;;;;;;;;4.00;4.00;;;;;23.42;37.84;102204.81;110478;1262;13822;-45
2022/09/05 06:14:51;;;;;;;;;5.67;5.67;;;;;23.44;37.76;102204.09;110373;1262;14196;-44
2022/09/05 06:17:36;;;;;;;;;5.00;5.00;;;;;23.46;37.70;102208.02;110436;1262;13962;-47
2022/09/05 06:20:21;;;;;;;;;5.00;5.00;;;;;23.50;37.73;102203.33;110368;1262;13874;-42
2022/09/05 06:23:06;;;;;;;;;5.00;5.00;;;;;23.56;37.79;102204.44;110395;1262;14173;-45
2022/09/05 06:25:51;;;;;;;;;3.00;3.00;;;;;23.61;37.98;102200.66;110406;1262;14383;-46
2022/09/05 06:28:36;;;;;;;;;3.00;3.00;;;;;23.68;38.16;102194.90;110500;1262;14701;-46
2022/09/05 06:31:21;;;;;;;;;3.67;3.00;;;;;23.70;38.20;102199.33;110623;1262;13242;-46
2022/09/05 06:34:06;;;;;;;;;2.00;2.00;;;;;23.70;38.25;102199.52;110517;1262;12931;-45
2022/09/05 06:36:52;;;;;;;;;3.00;3.00;;;;;23.72;38.18;102198.86;110377;1262;13300;-45
2022/09/05 06:39:37;;;;;;;;;5.00;3.00;;;;;23.72;38.19;102200.10;110433;1261;23542;-46
2022/09/05 06:42:22;;;;;;;;;2.50;2.50;;;;;23.74;38.19;102201.37;110473;1262;14369;-47
2022/09/05 06:45:07;;;;;;;;;2.00;2.00;;;;;23.80;38.43;102203.63;110375;1261;14405;-46
2022/09/05 06:47:52;;;;;;;;;3.00;3.00;;;;;23.73;38.26;102202.67;110427;1262;14605;-49
2022/09/05 06:50:38;;;;;;;;;9.33;8.00;;;;;23.48;37.92;102203.93;110353;1261;14517;-46
2022/09/05 06:53:23;;;;;;;;;7.00;7.00;;;;;23.26;37.56;102204.14;110353;1261;14800;-46
2022/09/05 06:56:08;;;;;;;;;11.00;8.00;;;;;23.14;37.21;102207.87;110321;1262;14751;-46
2022/09/05 06:58:53;;;;;;;;;8.67;8.67;;;;;23.14;36.69;102211.59;110445;1262;14872;-50
2022/09/05 07:01:38;;;;;;;;;6.67;6.00;;;;;23.05;36.48;102210.66;110548;1261;14991;-47
2022/09/05 07:04:23;;;;;;;;;8.00;6.00;;;;;22.98;36.34;102209.36;110538;1261;12897;-47
2022/09/05 07:07:08;;;;;;;;;5.00;5.00;;;;;22.94;36.25;102211.98;110315;1262;13366;-44
2022/09/05 07:09:53;;;;;;;;;5.33;5.33;;;;;22.95;36.08;102212.07;110345;1261;12840;-48
2022/09/05 07:12:38;;;;;;;;;3.00;3.00;;;;;22.84;36.14;102215.55;110371;1262;13618;-46
2022/09/05 07:15:23;;;;;;;;;3.00;3.00;;;;;22.80;36.13;102218.45;110463;1261;14858;-46
2022/09/05 07:18:09;;;;;;;;;3.00;3.00;;;;;22.75;36.07;102225.89;110494;1261;13849;-48
2022/09/05 07:20:54;;;;;;;;;5.33;5.33;;;;;22.58;36.20;102222.18;110425;1262;14273;-51
2022/09/05 07:23:40;;;;;;;;;3.00;3.00;;;;;22.61;36.26;102227.83;110435;1262;14820;-46
2022/09/05 07:26:24;;;;;;;;;3.00;3.00;;;;;22.74;36.11;102232.07;110490;1262;14796;-46
2022/09/05 07:29:09;;;;;;;;;3.00;3.00;;;;;22.69;36.04;102238.89;110484;1261;13806;-46
2022/09/05 07:31:55;;;;;;;;;3.00;3.00;;;;;22.76;36.06;102237.84;110441;1262;13932;-50
2022/09/05 07:34:40;;;;;;;;;3.00;3.00;;;;;22.78;36.05;102239.44;110479;1261;14952;-46
2022/09/05 07:37:25;;;;;;;;;4.33;4.33;;;;;22.76;36.12;102241.48;110479;1261;15164;-46
2022/09/05 07:40:10;;;;;;;;;5.67;5.00;;;;;22.82;36.13;102244.19;110507;1262;13239;-45
2022/09/05 07:42:55;;;;;;;;;3.00;3.00;;;;;22.88;36.12;102246.86;110458;1261;12868;-46
2022/09/05 07:45:40;;;;;;;;;3.00;3.00;;;;;22.83;36.51;102252.04;110460;1262;14806;-46
2022/09/05 07:48:26;;;;;;;;;2.00;2.00;;;;;22.85;36.31;102244.23;110497;1261;18019;-46
2022/09/05 07:51:11;;;;;;;;;2.00;2.00;;;;;22.96;36.24;102239.45;110409;1261;14818;-47
2022/09/05 07:53:56;;;;;;;;;2.33;2.33;;;;;23.00;36.15;102243.83;110437;1262;14896;-45
2022/09/05 07:56:41;;;;;;;;;3.00;3.00;;;;;23.06;36.06;102243.44;110411;1262;14642;-46
2022/09/05 07:59:28;;;;;;;;;2.67;2.67;;;;;23.03;35.91;102243.14;110541;1262;15029;-46
2022/09/05 08:02:13;;;;;;;;;3.00;3.00;;;;;23.11;35.86;102239.59;110446;1261;15062;-46
2022/09/05 08:04:58;;;;;;;;;3.00;3.00;;;;;23.19;35.68;102235.16;110425;1262;14819;-46
2022/09/05 08:07:43;;;;;;;;;2.33;2.33;;;;;23.14;35.57;102241.27;110575;1261;15034;-46
2022/09/05 08:10:28;;;;;;;;;5.67;5.00;;;;;23.18;35.60;102236.73;110530;1261;14439;-46
2022/09/05 08:13:13;;;;;;;;;3.00;3.00;;;;;23.28;35.47;102236.19;110562;1261;13160;-46
2022/09/05 08:15:59;;;;;;;;;3.00;3.00;;;;;23.30;35.46;102234.74;110425;1262;13091;-48
2022/09/05 08:18:45;;;;;;;;;3.00;3.00;;;;;23.39;35.42;102234.52;110414;1262;14424;-46
2022/09/05 08:21:30;;;;;;;;;3.00;3.00;;;;;23.07;34.91;102234.31;110320;1261;15206;-45
2022/09/05 08:24:15;;;;;;;;;2.00;2.00;;;;;22.23;35.21;102236.52;110405;1262;14947;-46
2022/09/05 08:27:00;;;;;;;;;2.00;2.00;;;;;22.59;34.71;102236.64;110467;1262;15508;-46
2022/09/05 08:29:45;;;;;;;;;14.50;13.00;;;;;22.78;34.55;102234.18;110322;1262;14967;-45
2022/09/05 08:32:30;;;;;;;;;39.00;33.67;;;;;23.01;34.15;102228.80;110300;1262;15311;-46
2022/09/05 08:35:15;;;;;;;;;33.50;24.50;;;;;23.00;33.44;102220.84;110440;1261;14241;-45
2022/09/05 08:38:00;;;;;;;;;25.00;19.00;;;;;22.92;32.90;102218.35;110407;1261;13955;-45
2022/09/05 08:40:45;;;;;;;;;23.00;17.00;;;;;22.92;33.18;102218.52;110316;1262;13303;-46
2022/09/05 08:43:30;;;;;;;;;8.00;8.00;;;;;23.06;32.97;102216.88;110367;1262;15425;-50
2022/09/05 08:46:15;;;;;;;;;10.00;8.00;;;;;23.06;33.20;102213.84;110346;1262;13020;-47
2022/09/05 08:49:00;;;;;;;;;6.00;6.00;;;;;23.10;32.48;102212.10;110383;1262;13221;-47
2022/09/05 08:51:45;;;;;;;;;6.00;5.00;;;;;23.03;33.10;102209.61;110390;1262;13846;-47
2022/09/05 08:54:30;;;;;;;;;4.67;3.67;;;;;23.15;32.61;102204.49;110455;1262;14992;-45
2022/09/05 08:57:16;;;;;;;;;3.67;3.67;;;;;23.22;32.32;102200.38;110357;1261;13627;-45
2022/09/05 09:00:03;;;;;;;;;3.00;2.00;;;;;23.08;32.06;102199.27;110331;1261;14862;-47
2022/09/05 09:02:48;;;;;;;;;1.67;1.67;;;;;22.86;31.98;102200.88;110469;1261;14333;-46
2022/09/05 09:05:33;;;;;;;;;2.00;2.00;;;;;22.87;32.42;102195.58;110431;1261;14525;-46
2022/09/05 09:08:19;;;;;;;;;3.00;2.00;;;;;23.11;32.30;102191.25;110485;1262;13987;-46
2022/09/05 09:11:04;;;;;;;;;2.00;2.00;;;;;23.34;31.97;102188.73;110496;1261;15292;-45
2022/09/05 09:13:51;;;;;;;;;6.00;6.00;;;;;23.54;31.66;102189.91;110618;1261;14906;-47
2022/09/05 09:16:36;;;;;;;;;5.00;5.00;;;;;23.56;31.52;102186.27;110497;1261;14748;-48
2022/09/05 09:19:21;;;;;;;;;3.67;3.00;;;;;23.56;31.52;102188.64;110509;1261;14948;-47
2022/09/05 09:22:06;;;;;;;;;2.00;2.00;;;;;23.54;31.70;102191.94;110260;1263;13109;-47
2022/09/05 09:24:51;;;;;;;;;2.00;2.00;;;;;23.33;31.76;102186.10;110474;1262;15520;-47
2022/09/05 09:27:36;;;;;;;;;2.00;2.00;;;;;22.89;31.79;102199.55;110507;1261;14578;-45
2022/09/05 09:30:21;;;;;;;;;2.67;2.67;;;;;22.65;31.76;102190.80;110493;1262;13177;-45
2022/09/05 09:33:06;;;;;;;;;2.00;2.00;;;;;22.55;31.82;102183.80;110477;1262;14196;-46
2022/09/05 09:35:51;;;;;;;;;2.00;2.00;;;;;22.80;31.83;102186.37;110361;1262;14482;-45
2022/09/05 09:38:36;;;;;;;;;2.00;2.00;;;;;22.94;31.92;102187.20;110566;1261;14980;-46
2022/09/05 09:41:21;;;;;;;;;2.00;2.00;;;;;22.93;32.03;102180.56;110556;1261;14878;-46
2022/09/05 09:44:07;;;;;;;;;2.00;2.00;;;;;22.82;31.94;102184.23;110440;1262;14484;-45
2022/09/05 09:46:52;;;;;;;;;1.00;1.00;;;;;22.99;32.35;102184.14;110305;1261;13599;-46
2022/09/05 09:49:37;;;;;;;;;2.00;2.00;;;;;23.08;32.42;102184.67;110278;1262;14629;-50
2022/09/05 09:52:23;;;;;;;;;2.00;2.00;;;;;23.00;32.20;102185.06;110272;1261;12684;-44
2022/09/05 09:55:08;;;;;;;;;2.00;2.00;;;;;22.72;32.15;102189.17;110345;1262;13073;-45
2022/09/05 09:57:54;;;;;;;;;2.00;2.00;;;;;22.66;32.43;102182.31;110308;1261;14347;-45
2022/09/05 10:00:39;;;;;;;;;2.00;2.00;;;;;22.82;32.10;102180.70;110271;1262;15042;-44
2022/09/05 10:03:24;;;;;;;;;2.00;2.00;;;;;22.96;31.51;102182.40;110422;1262;14458;-45
2022/09/05 10:06:09;;;;;;;;;2.33;2.33;;;;;22.92;31.79;102185.90;110488;1261;12994;-46
2022/09/05 10:08:54;;;;;;;;;2.00;2.00;;;;;22.92;32.06;102175.36;110503;1261;15106;-46
2022/09/05 10:11:39;;;;;;;;;2.00;2.00;;;;;23.00;31.72;102173.23;110433;1262;14408;-46
2022/09/05 10:14:24;;;;;;;;;2.00;2.00;;;;;22.78;31.58;102171.70;110563;1261;14628;-51
2022/09/05 10:17:09;;;;;;;;;2.00;2.00;;;;;22.48;31.57;102177.80;110451;1261;15526;-46
2022/09/05 10:19:55;;;;;;;;;2.00;2.00;;;;;22.30;31.70;102170.64;110489;1262;14419;-49
2022/09/05 10:22:40;;;;;;;;;2.00;2.00;;;;;22.21;31.85;102167.02;110440;1261;14304;-46
2022/09/05 10:25:25;;;;;;;;;2.00;2.00;;;;;22.39;31.98;102162.13;110484;1262;13123;-46
2022/09/05 10:28:11;;;;;;;;;2.00;2.00;;;;;22.54;31.92;102154.55;110505;1261;12736;-46
2022/09/05 10:30:56;;;;;;;;;2.00;2.00;;;;;22.87;31.74;102155.48;110454;1262;13298;-46
2022/09/05 10:33:41;;;;;;;;;2.33;2.33;;;;;23.06;31.45;102151.48;110474;1262;12928;-46
2022/09/05 10:36:27;;;;;;;;;2.00;2.00;;;;;23.05;31.30;102148.61;110418;1262;15538;-47
2022/09/05 10:39:12;;;;;;;;;2.00;2.00;;;;;22.81;31.43;102145.08;110462;1261;14788;-47
2022/09/05 10:41:57;;;;;;;;;3.00;3.00;;;;;22.80;31.34;102142.46;110426;1262;14831;-46
2022/09/05 10:44:42;;;;;;;;;2.00;2.00;;;;;22.84;31.32;102136.96;110362;1262;14920;-46
2022/09/05 10:47:27;;;;;;;;;2.00;2.00;;;;;22.98;31.64;102140.65;110486;1262;14243;-46
2022/09/05 10:50:12;;;;;;;;;2.00;2.00;;;;;22.98;31.72;102141.42;110498;1261;14047;-46
2022/09/05 10:52:58;;;;;;;;;2.00;2.00;;;;;22.78;31.91;102139.95;110572;1261;14988;-46
2022/09/05 10:55:44;;;;;;;;;7.00;6.00;;;;;22.90;31.89;102134.36;110586;1261;14739;-46
2022/09/05 10:58:29;;;;;;;;;6.67;6.67;;;;;23.10;31.97;102128.52;110509;1261;13541;-46
2022/09/05 11:01:14;;;;;;;;;3.00;3.00;;;;;23.08;31.82;102133.90;110604;1261;12910;-46
2022/09/05 11:03:59;;;;;;;;;5.00;3.00;;;;;22.66;31.89;102126.39;110502;1261;13200;-47
2022/09/05 11:06:44;;;;;;;;;3.00;2.00;;;;;22.77;32.12;102128.43;110446;1262;15192;-46
2022/09/05 11:09:29;;;;;;;;;2.00;2.00;;;;;22.83;32.14;102125.09;110433;1261;15282;-46
2022/09/05 11:12:14;;;;;;;;;2.00;2.00;;;;;22.61;32.24;102125.24;110504;1262;15263;-46
2022/09/05 11:15:01;;;;;;;;;2.00;2.00;;;;;22.69;31.98;102126.45;110438;1261;14890;-47
2022/09/05 11:17:46;;;;;;;;;1.67;1.67;;;;;22.54;32.02;102122.89;110439;1262;14147;-47
2022/09/05 11:20:31;;;;;;;;;2.00;2.00;;;;;22.71;32.43;102124.52;110499;1262;13647;-47
2022/09/05 11:23:16;;;;;;;;;2.00;2.00;;;;;22.92;32.73;102122.68;110400;1262;14363;-47
2022/09/05 11:26:01;;;;;;;;;2.00;2.00;;;;;22.97;32.87;102119.07;110431;1262;13775;-47
2022/09/05 11:28:46;;;;;;;;;5.33;3.00;;;;;23.08;32.58;102117.14;110486;1261;14344;-47
2022/09/05 11:31:31;;;;;;;;;10.00;9.67;;;;;23.06;32.23;102112.85;110461;1262;13055;-46
2022/09/05 11:34:17;;;;;;;;;21.00;19.67;;;;;23.01;32.24;102109.74;110481;1261;13212;-45
2022/09/05 11:37:02;;;;;;;;;28.67;21.00;;;;;22.99;32.44;102111.53;110517;1262;13276;-46
2022/09/05 11:39:47;;;;;;;;;7.00;6.00;;;;;23.05;32.44;102107.86;110457;1262;14729;-46
2022/09/05 11:42:32;;;;;;;;;5.67;5.00;;;;;22.95;32.71;102104.46;110468;1261;17997;-48
2022/09/05 11:45:17;;;;;;;;;3.00;3.00;;;;;23.02;32.68;102103.40;110499;1262;14899;-48
2022/09/05 11:48:02;;;;;;;;;2.00;2.00;;;;;22.98;32.87;102102.35;110388;1261;13635;-46
2022/09/05 11:50:47;;;;;;;;;3.00;3.00;;;;;23.12;32.91;102099.95;110413;1261;14364;-43
2022/09/05 11:53:32;;;;;;;;;2.00;2.00;;;;;23.23;33.08;102092.66;110544;1262;14282;-47
2022/09/05 11:56:17;;;;;;;;;3.00;3.00;;;;;23.27;33.04;102094.85;110420;1262;15145;-46
2022/09/05 11:59:02;;;;;;;;;2.67;2.67;;;;;23.11;33.08;102096.25;110578;1261;14139;-44
2022/09/05 12:01:48;;;;;;;;;2.00;2.00;;;;;22.98;33.15;102093.78;110506;1261;14621;-45
2022/09/05 12:04:33;;;;;;;;;3.00;3.00;;;;;22.90;33.43;102092.41;110515;1262;13063;-45
2022/09/05 12:07:17;;;;;;;;;2.67;2.67;;;;;22.91;33.41;102091.02;110491;1261;12653;-44
2022/09/05 12:10:02;;;;;;;;;2.00;2.00;;;;;22.96;33.64;102087.84;110434;1262;12991;-46
2022/09/05 12:12:48;;;;;;;;;2.00;2.00;;;;;22.99;33.69;102090.80;110455;1262;14591;-46
2022/09/05 12:15:33;;;;;;;;;2.50;2.50;;;;;22.90;33.85;102088.95;110456;1261;14820;-46
2022/09/05 12:18:18;;;;;;;;;2.67;2.67;;;;;23.02;34.03;102083.33;110443;1261;14789;-48
2022/09/05 12:21:04;;;;;;;;;2.00;2.00;;;;;23.04;34.17;102089.05;110522;1261;14851;-48
2022/09/05 12:23:49;;;;;;;;;2.00;2.00;;;;;22.88;34.49;102087.74;110463;1261;15408;-45
2022/09/05 12:26:34;;;;;;;;;2.00;2.00;;;;;22.95;34.37;102084.60;110465;1261;14829;-46
2022/09/05 12:29:18;;;;;;;;;2.00;2.00;;;;;22.79;34.25;102085.52;110452;1261;14059;-47
2022/09/05 12:32:04;;;;;;;;;2.00;2.00;;;;;22.72;34.37;102081.48;110487;1262;14128;-46
2022/09/05 12:34:49;;;;;;;;;2.00;2.00;;;;;22.62;34.43;102075.30;110537;1262;14785;-46
2022/09/05 12:37:35;;;;;;;;;2.00;2.00;;;;;22.79;34.19;102075.52;110485;1262;14516;-47